PWSweather.com
Personal Weather Stations
Station Observations
INORDPAS37
Bondues, BonduesFR 59910

BonduesBonduesFR 59910

Lat: 50.7, Lon: 3.09

Elevation: 102

Station Type: Netatmo

http://bondues.meteoamikuze.com

High Low Average
Temperature 54.0°F12.2°C 45.5°F7.5°C 48.4°F9.1°C
Dew Point 45.1°F7.3°C 33.1°F0.6°C 36.5°F2.5°C
Winds 10.5 mph 16.9 kmh 1.8 mph 2.9 kmh 6.0 mph WSW9.7 kmh WSW
Wind Gusts 28.0 mph45.1 kmh 4.9 mph7.9 kmh 13.0 mph20.9 kmh
Humidity 78% 62% 69%
Pressure 29.62 in1003.0 mb 29.35 in993.9 mb -
Precipitation 0.34 in8.6 mm - -
Hour Temp Dew Point Humidity Winds Wind Gusts Pressure Precip Precip Rate Daily Precip Total
12:15 AM 46.6°F8.1°C 33.4°F0.8°C 65% 3.8 mph WSW6.1 kmh WSW 9.8 mph15.8 kmh 29.62 in1003.0 mb 0.00 in0.0 mm 0.00 in0.0 mm 0.00 in0.0 mm
12:35 AM 46.6°F8.1°C 33.4°F0.8°C 65% 4.3 mph WSW6.9 kmh WSW 12.5 mph20.1 kmh 29.61 in1002.7 mb 0.00 in0.0 mm 0.00 in0.0 mm 0.00 in0.0 mm
12:55 AM 46.4°F8.0°C 33.6°F0.9°C 66% 4.3 mph W6.9 kmh W 12.5 mph20.1 kmh 29.62 in1003.0 mb 0.00 in0.0 mm 0.00 in0.0 mm 0.00 in0.0 mm
01:15 AM 46.2°F7.9°C 33.4°F0.8°C 66% 3.8 mph WSW6.1 kmh WSW 9.8 mph15.8 kmh 29.61 in1002.7 mb 0.00 in0.0 mm 0.00 in0.0 mm 0.00 in0.0 mm
01:35 AM 46.2°F7.9°C 33.4°F0.8°C 66% 4.9 mph WSW7.9 kmh WSW 10.5 mph16.9 kmh 29.59 in1002.0 mb 0.00 in0.0 mm 0.00 in0.0 mm 0.00 in0.0 mm
01:55 AM 45.9°F7.7°C 33.1°F0.6°C 66% 3.8 mph WSW6.1 kmh WSW 11.2 mph18.0 kmh 29.59 in1002.0 mb 0.00 in0.0 mm 0.00 in0.0 mm 0.00 in0.0 mm
02:15 AM 45.9°F7.7°C 33.4°F0.8°C 67% 3.8 mph WSW6.1 kmh WSW 7.4 mph11.9 kmh 29.58 in1001.7 mb 0.00 in0.0 mm 0.00 in0.0 mm 0.00 in0.0 mm
02:35 AM 45.9°F7.7°C 33.4°F0.8°C 67% 4.9 mph WSW7.9 kmh WSW 11.2 mph18.0 kmh 29.59 in1002.0 mb 0.00 in0.0 mm 0.00 in0.0 mm 0.00 in0.0 mm
02:47 AM 46.0°F7.8°C 34.0°F1.1°C 68% 4.9 mph SW7.9 kmh SW 10.5 mph16.9 kmh 29.59 in1002.0 mb 0.00 in0.0 mm 0.00 in0.0 mm 0.00 in0.0 mm
03:07 AM 46.2°F7.9°C 34.2°F1.2°C 68% 4.3 mph WSW6.9 kmh WSW 10.5 mph16.9 kmh 29.58 in1001.7 mb 0.00 in0.0 mm 0.00 in0.0 mm 0.00 in0.0 mm
03:28 AM 46.4°F8.0°C 34.3°F1.3°C 68% 4.3 mph WSW6.9 kmh WSW 9.4 mph15.1 kmh 29.58 in1001.7 mb 0.00 in0.0 mm 0.00 in0.0 mm 0.00 in0.0 mm
03:47 AM 46.4°F8.0°C 34.7°F1.5°C 69% 3.8 mph SW6.1 kmh SW 8.1 mph13.0 kmh 29.58 in1001.7 mb 0.00 in0.0 mm 0.00 in0.0 mm 0.00 in0.0 mm
04:08 AM 46.6°F8.1°C 34.9°F1.6°C 69% 3.1 mph SW5.0 kmh SW 6.9 mph11.1 kmh 29.59 in1002.0 mb 0.00 in0.0 mm 0.00 in0.0 mm 0.00 in0.0 mm
04:27 AM 46.6°F8.1°C 34.9°F1.6°C 69% 3.8 mph SW6.1 kmh SW 8.1 mph13.0 kmh 29.58 in1001.7 mb 0.00 in0.0 mm 0.00 in0.0 mm 0.00 in0.0 mm
04:48 AM 46.8°F8.2°C 35.1°F1.7°C 69% 3.8 mph SW6.1 kmh SW 7.4 mph11.9 kmh 29.57 in1001.4 mb 0.00 in0.0 mm 0.00 in0.0 mm 0.00 in0.0 mm
05:08 AM 46.8°F8.2°C 35.4°F1.9°C 70% 3.8 mph SW6.1 kmh SW 8.7 mph14.0 kmh 29.56 in1001.0 mb 0.00 in0.0 mm 0.00 in0.0 mm 0.00 in0.0 mm
05:28 AM 46.6°F8.1°C 35.2°F1.8°C 70% 3.1 mph SW5.0 kmh SW 8.1 mph13.0 kmh 29.54 in1000.3 mb 0.00 in0.0 mm 0.00 in0.0 mm 0.00 in0.0 mm
05:49 AM 46.2°F7.9°C 34.9°F1.6°C 70% 2.5 mph SW4.0 kmh SW 7.4 mph11.9 kmh 29.53 in1000.0 mb 0.00 in0.0 mm 0.01 in0.3 mm 0.00 in0.0 mm
06:08 AM 46.0°F7.8°C 34.7°F1.5°C 70% 3.1 mph SW5.0 kmh SW 7.4 mph11.9 kmh 29.52 in999.7 mb 0.00 in0.0 mm 0.00 in0.0 mm 0.00 in0.0 mm
06:28 AM 46.0°F7.8°C 35.2°F1.8°C 71% 2.5 mph SW4.0 kmh SW 5.6 mph9.0 kmh 29.52 in999.7 mb 0.01 in0.3 mm 0.02 in0.5 mm 0.01 in0.3 mm
06:48 AM 45.9°F7.7°C 35.1°F1.7°C 71% 3.1 mph SW5.0 kmh SW 6.9 mph11.1 kmh 29.51 in999.3 mb 0.02 in0.5 mm 0.04 in1.0 mm 0.03 in0.8 mm
07:08 AM 45.7°F7.6°C 34.9°F1.6°C 71% 1.8 mph SW2.9 kmh SW 8.1 mph13.0 kmh 29.51 in999.3 mb 0.04 in1.0 mm 0.03 in0.8 mm 0.05 in1.3 mm
07:29 AM 45.7°F7.6°C 34.9°F1.6°C 71% 3.1 mph SW5.0 kmh SW 6.9 mph11.1 kmh 29.50 in999.0 mb 0.06 in1.5 mm 0.05 in1.3 mm 0.07 in1.8 mm
07:48 AM 45.5°F7.5°C 34.7°F1.5°C 71% 3.1 mph SW5.0 kmh SW 7.4 mph11.9 kmh 29.49 in998.6 mb 0.06 in1.5 mm 0.01 in0.3 mm 0.09 in2.3 mm
08:09 AM 45.5°F7.5°C 34.7°F1.5°C 71% 2.5 mph SW4.0 kmh SW 6.9 mph11.1 kmh 29.49 in998.6 mb 0.06 in1.5 mm 0.00 in0.0 mm 0.11 in2.8 mm
08:28 AM 45.5°F7.5°C 34.7°F1.5°C 71% 3.1 mph WSW5.0 kmh WSW 9.8 mph15.8 kmh 29.47 in998.0 mb 0.06 in1.5 mm 0.00 in0.0 mm 0.14 in3.6 mm
08:49 AM 45.5°F7.5°C 34.7°F1.5°C 71% 2.5 mph SW4.0 kmh SW 6.9 mph11.1 kmh 29.46 in997.6 mb 0.06 in1.5 mm 0.00 in0.0 mm 0.15 in3.8 mm
09:09 AM 45.5°F7.5°C 35.1°F1.7°C 72% 2.5 mph SW4.0 kmh SW 4.9 mph7.9 kmh 29.45 in997.3 mb 0.05 in1.3 mm 0.00 in0.0 mm 0.16 in4.1 mm
09:35 AM 45.5°F7.5°C 35.1°F1.7°C 72% 3.1 mph SW5.0 kmh SW 5.6 mph9.0 kmh 29.45 in997.3 mb 0.03 in0.8 mm 0.00 in0.0 mm 0.17 in4.3 mm
09:55 AM 45.7°F7.6°C 35.2°F1.8°C 72% 3.1 mph SW5.0 kmh SW 7.4 mph11.9 kmh 29.44 in997.0 mb 0.03 in0.8 mm 0.00 in0.0 mm 0.18 in4.6 mm
10:15 AM 46.0°F7.8°C 35.6°F2.0°C 72% 3.1 mph WSW5.0 kmh WSW 5.6 mph9.0 kmh 29.42 in996.3 mb 0.04 in1.0 mm 0.02 in0.5 mm 0.20 in5.1 mm
10:35 AM 46.2°F7.9°C 35.8°F2.1°C 72% 3.8 mph WSW6.1 kmh WSW 8.7 mph14.0 kmh 29.42 in996.3 mb 0.05 in1.3 mm 0.01 in0.3 mm 0.22 in5.6 mm
10:55 AM 46.6°F8.1°C 36.5°F2.5°C 73% 3.8 mph SW6.1 kmh SW 8.1 mph13.0 kmh 29.40 in995.6 mb 0.06 in1.5 mm 0.05 in1.3 mm 0.26 in6.6 mm
11:15 AM 46.8°F8.2°C 36.7°F2.6°C 73% 3.8 mph SW6.1 kmh SW 10.5 mph16.9 kmh 29.40 in995.6 mb 0.09 in2.3 mm 0.04 in1.0 mm 0.30 in7.6 mm
11:35 AM 46.9°F8.3°C 36.9°F2.7°C 73% 4.9 mph WSW7.9 kmh WSW 13.0 mph20.9 kmh 29.38 in994.9 mb 0.09 in2.3 mm 0.00 in0.0 mm 0.32 in8.1 mm
11:55 AM 47.8°F8.8°C 38.1°F3.4°C 74% 4.9 mph SW7.9 kmh SW 11.9 mph19.2 kmh 29.37 in994.6 mb 0.06 in1.5 mm 0.00 in0.0 mm 0.33 in8.4 mm
12:15 PM 49.3°F9.6°C 39.4°F4.1°C 74% 6.9 mph WNW11.1 kmh WNW 11.2 mph18.0 kmh 29.36 in994.2 mb 0.03 in0.8 mm 0.00 in0.0 mm 0.33 in8.4 mm
12:23 PM 51.8°F11.0°C 42.6°F5.9°C 76% 9.8 mph WNW15.8 kmh WNW 21.0 mph33.8 kmh 29.37 in994.6 mb 0.02 in0.5 mm 0.00 in0.0 mm 0.34 in8.6 mm
12:42 PM 52.7°F11.5°C 43.9°F6.6°C 77% 9.4 mph NW15.1 kmh NW 15.0 mph24.1 kmh 29.36 in994.2 mb 0.01 in0.3 mm 0.00 in0.0 mm 0.34 in8.6 mm
01:03 PM 52.9°F11.6°C 44.1°F6.7°C 77% 7.4 mph NW11.9 kmh NW 13.0 mph20.9 kmh 29.36 in994.2 mb 0.00 in0.0 mm 0.00 in0.0 mm 0.34 in8.6 mm
01:27 PM 53.4°F11.9°C 45.0°F7.2°C 78% 8.1 mph NNW13.0 kmh NNW 14.3 mph23.0 kmh 29.36 in994.2 mb 0.00 in0.0 mm 0.00 in0.0 mm 0.34 in8.6 mm
01:48 PM 53.8°F12.1°C 45.0°F7.2°C 77% 8.7 mph NW14.0 kmh NW 16.1 mph25.9 kmh 29.36 in994.2 mb 0.00 in0.0 mm 0.00 in0.0 mm 0.34 in8.6 mm
02:04 PM 54.0°F12.2°C 45.1°F7.3°C 77% 8.7 mph WNW14.0 kmh WNW 18.1 mph29.1 kmh 29.36 in994.2 mb 0.00 in0.0 mm 0.00 in0.0 mm 0.34 in8.6 mm
02:25 PM 54.0°F12.2°C 44.8°F7.1°C 76% 9.4 mph WNW15.1 kmh WNW 22.4 mph36.0 kmh 29.36 in994.2 mb 0.00 in0.0 mm 0.00 in0.0 mm 0.34 in8.6 mm
02:44 PM 53.8°F12.1°C 43.7°F6.5°C 74% 6.9 mph WSW11.1 kmh WSW 17.4 mph28.0 kmh 29.35 in993.9 mb 0.00 in0.0 mm 0.01 in0.3 mm 0.34 in8.6 mm
03:05 PM 54.0°F12.2°C 43.2°F6.2°C 72% 8.7 mph WSW14.0 kmh WSW 19.9 mph32.0 kmh 29.35 in993.9 mb 0.00 in0.0 mm 0.00 in0.0 mm 0.34 in8.6 mm
03:25 PM 54.0°F12.2°C 42.4°F5.8°C 70% 8.7 mph WSW14.0 kmh WSW 18.1 mph29.1 kmh 29.36 in994.2 mb 0.00 in0.0 mm 0.00 in0.0 mm 0.34 in8.6 mm
03:45 PM 53.8°F12.1°C 41.7°F5.4°C 69% 9.8 mph WSW15.8 kmh WSW 23.7 mph38.1 kmh 29.35 in993.9 mb 0.00 in0.0 mm 0.00 in0.0 mm 0.34 in8.6 mm
04:06 PM 53.4°F11.9°C 40.3°F4.6°C 66% 8.1 mph WSW13.0 kmh WSW 18.1 mph29.1 kmh 29.36 in994.2 mb 0.00 in0.0 mm 0.00 in0.0 mm 0.34 in8.6 mm
04:25 PM 53.2°F11.8°C 40.5°F4.7°C 67% 6.9 mph WSW11.1 kmh WSW 13.6 mph21.9 kmh 29.36 in994.2 mb 0.00 in0.0 mm 0.00 in0.0 mm 0.34 in8.6 mm
04:46 PM 52.9°F11.6°C 39.4°F4.1°C 65% 10.5 mph W16.9 kmh W 24.8 mph39.9 kmh 29.37 in994.6 mb 0.00 in0.0 mm 0.00 in0.0 mm 0.34 in8.6 mm
05:09 PM 52.3°F11.3°C 38.5°F3.6°C 64% 8.7 mph WSW14.0 kmh WSW 23.7 mph38.1 kmh 29.38 in994.9 mb 0.00 in0.0 mm 0.00 in0.0 mm 0.34 in8.6 mm
05:29 PM 51.8°F11.0°C 37.9°F3.3°C 64% 8.7 mph WSW14.0 kmh WSW 20.6 mph33.2 kmh 29.37 in994.6 mb 0.00 in0.0 mm 0.00 in0.0 mm 0.34 in8.6 mm
05:55 PM 51.4°F10.8°C 37.2°F2.9°C 63% 10.5 mph W16.9 kmh W 28.0 mph45.1 kmh 29.38 in994.9 mb 0.00 in0.0 mm 0.00 in0.0 mm 0.34 in8.6 mm
06:15 PM 50.9°F10.5°C 36.7°F2.6°C 63% 9.8 mph W15.8 kmh W 19.9 mph32.0 kmh 29.39 in995.3 mb 0.00 in0.0 mm 0.00 in0.0 mm 0.34 in8.6 mm
06:35 PM 50.4°F10.2°C 35.8°F2.1°C 62% 9.4 mph W15.1 kmh W 16.8 mph27.0 kmh 29.40 in995.6 mb 0.00 in0.0 mm 0.00 in0.0 mm 0.34 in8.6 mm
06:55 PM 49.8°F9.9°C 35.2°F1.8°C 62% 8.1 mph W13.0 kmh W 15.0 mph24.1 kmh 29.40 in995.6 mb 0.00 in0.0 mm 0.00 in0.0 mm 0.34 in8.6 mm
07:15 PM 49.5°F9.7°C 35.4°F1.9°C 63% 8.1 mph W13.0 kmh W 14.3 mph23.0 kmh 29.41 in995.9 mb 0.00 in0.0 mm 0.00 in0.0 mm 0.34 in8.6 mm
07:29 PM 49.3°F9.6°C 35.2°F1.8°C 63% 8.7 mph W14.0 kmh W 18.1 mph29.1 kmh 29.44 in997.0 mb 0.00 in0.0 mm 0.00 in0.0 mm 0.34 in8.6 mm
07:49 PM 48.9°F9.4°C 34.9°F1.6°C 63% 8.7 mph W14.0 kmh W 19.9 mph32.0 kmh 29.45 in997.3 mb 0.00 in0.0 mm 0.00 in0.0 mm 0.34 in8.6 mm
08:09 PM 48.7°F9.3°C 34.7°F1.5°C 63% 8.7 mph W14.0 kmh W 18.1 mph29.1 kmh 29.47 in998.0 mb 0.00 in0.0 mm 0.00 in0.0 mm 0.34 in8.6 mm
08:24 PM 48.6°F9.2°C 34.5°F1.4°C 63% 8.1 mph W13.0 kmh W 15.0 mph24.1 kmh 29.47 in998.0 mb 0.00 in0.0 mm 0.00 in0.0 mm 0.34 in8.6 mm
08:43 PM 48.2°F9.0°C 34.2°F1.2°C 63% 6.9 mph WSW11.1 kmh WSW 15.0 mph24.1 kmh 29.46 in997.6 mb 0.00 in0.0 mm 0.00 in0.0 mm 0.34 in8.6 mm
09:04 PM 47.7°F8.7°C 33.6°F0.9°C 63% 6.9 mph WSW11.1 kmh WSW 18.1 mph29.1 kmh 29.47 in998.0 mb 0.00 in0.0 mm 0.00 in0.0 mm 0.34 in8.6 mm
09:28 PM 47.1°F8.4°C 33.1°F0.6°C 63% 4.9 mph WSW7.9 kmh WSW 11.9 mph19.2 kmh 29.47 in998.0 mb 0.00 in0.0 mm 0.00 in0.0 mm 0.34 in8.6 mm
09:49 PM 46.8°F8.2°C 33.3°F0.7°C 64% 4.3 mph WSW6.9 kmh WSW 11.2 mph18.0 kmh 29.48 in998.3 mb 0.00 in0.0 mm 0.00 in0.0 mm 0.34 in8.6 mm
10:09 PM 46.8°F8.2°C 33.6°F0.9°C 65% 4.9 mph WSW7.9 kmh WSW 14.3 mph23.0 kmh 29.47 in998.0 mb 0.00 in0.0 mm 0.00 in0.0 mm 0.34 in8.6 mm
10:35 PM 46.8°F8.2°C 33.6°F0.9°C 65% 3.8 mph WSW6.1 kmh WSW 8.7 mph14.0 kmh 29.48 in998.3 mb 0.00 in0.0 mm 0.00 in0.0 mm 0.34 in8.6 mm
10:55 PM 46.8°F8.2°C 33.6°F0.9°C 65% 6.9 mph WSW11.1 kmh WSW 14.3 mph23.0 kmh 29.48 in998.3 mb 0.00 in0.0 mm 0.00 in0.0 mm 0.34 in8.6 mm
11:15 PM 46.8°F8.2°C 33.6°F0.9°C 65% 4.3 mph WSW6.9 kmh WSW 8.7 mph14.0 kmh 29.48 in998.3 mb 0.00 in0.0 mm 0.00 in0.0 mm 0.34 in8.6 mm
11:35 PM 46.8°F8.2°C 33.6°F0.9°C 65% 4.3 mph SW6.9 kmh SW 9.4 mph15.1 kmh 29.47 in998.0 mb 0.00 in0.0 mm 0.00 in0.0 mm 0.34 in8.6 mm
11:55 PM 46.4°F8.0°C 33.3°F0.7°C 65% 3.1 mph SW5.0 kmh SW 8.1 mph13.0 kmh 29.47 in998.0 mb 0.00 in0.0 mm 0.00 in0.0 mm 0.34 in8.6 mm